Tucson, AZ (85719)

3:13 PM MST on August 27, 2015 (GMT -0700)
Rickety Bones | | Change Station
CLOSE
Current Station
Personal Weather Station
Location: Tucson, AZ
Elevation: 2444 ft
Nearby Weather Stations

Elev 2444 ft 32.25 °N, 110.94 °W | Updated 3 minutes ago

Clear
Clear
101.7 °F
Feels Like 101 °F
N
1.0
Wind Variable Wind from NE
Gusts 1.0 mph

Today
High -- | Low -- °F
--% Chance of Precip.
Yesterday
High -- | Low -- °F
Precip. -- in
5:55 AM 6:54 PM
Waxing Gibbous, 95% visible
Pressure 29.85 in
Visibility 10.0 miles
Clouds Clear
Heat Index 101 °F
Dew Point 57 °F
Humidity 23%
Rainfall 0.00 in
Snow Depth Not available.
UV 7 out of 12
Pollen 4.10 out of 12
Air Quality Not available.
Flu Activity Not available.
METAR KDMA 272158Z AUTO 03002KT 10SM CLR 37/13 A2999 RMK AO2 SLP108 T03650131 $
Pressure 29.85 in
Visibility 10.0 miles
Clouds Clear
Heat Index 101 °F
Dew Point 57 °F
Humidity 23%
Rainfall 0.00 in
Snow Depth Not available.
UV 7 out of 12
Pollen 4.10 out of 12
Air Quality Not available.
Flu Activity Not available.
METAR KDMA 272158Z AUTO 03002KT 10SM CLR 37/13 A2999 RMK AO2 SLP108 T03650131 $

10-Day Weather Forecast

×

Almanac

Astronomy

Aug. 27, 2015 Rise Set
Actual Time
Civil Twilight
Nautical Twilight
Astronomical Twilight
Moon
Length of Visible Light
Length of Day
Tomorrow will be .
, % of the Moon is Illuminated

Today's Extremes

State Highs State Lows

Community

WunderPhotos

Upload Photos

1,850,250 photos uploaded!

WunderBlogs® & News

Nearby

Air Quality

  Air Quality AQ Index Pollutant
Not available.

Snow Depth

Station Depth Elevation

Earthquake Activity

City Distance Mag. Time & Date
Minimum magnitude displayed is 2.5.

Coastal Water Temperatures

Place Temperature

Stations

Nearby Weather Stations

Station Location Temp. Windchill Dew Point Humidity Wind Precip. Elev Updated Type